sensor_id;sensor_type;location;lat;lon;timestamp;temperature;humidity
10678;DHT22;5387;48.722;9.110;2023-05-23T00:01:28;16.20;99.90
10678;DHT22;5387;48.722;9.110;2023-05-23T00:03:55;16.20;99.90
10678;DHT22;5387;48.722;9.110;2023-05-23T00:06:23;16.20;99.90
10678;DHT22;5387;48.722;9.110;2023-05-23T00:08:49;16.20;99.90
10678;DHT22;5387;48.722;9.110;2023-05-23T00:11:16;16.20;99.90
10678;DHT22;5387;48.722;9.110;2023-05-23T00:13:46;16.10;99.90
10678;DHT22;5387;48.722;9.110;2023-05-23T00:16:13;16.20;99.90
10678;DHT22;5387;48.722;9.110;2023-05-23T00:18:40;16.20;99.90
10678;DHT22;5387;48.722;9.110;2023-05-23T00:21:10;16.20;99.90
10678;DHT22;5387;48.722;9.110;2023-05-23T00:23:38;16.20;99.90
10678;DHT22;5387;48.722;9.110;2023-05-23T00:26:06;16.10;99.90
10678;DHT22;5387;48.722;9.110;2023-05-23T00:28:33;16.20;99.90
10678;DHT22;5387;48.722;9.110;2023-05-23T00:31:01;16.10;99.90
10678;DHT22;5387;48.722;9.110;2023-05-23T00:33:28;16.10;99.90
10678;DHT22;5387;48.722;9.110;2023-05-23T00:35:57;16.10;99.90
10678;DHT22;5387;48.722;9.110;2023-05-23T00:38:24;16.00;99.90
10678;DHT22;5387;48.722;9.110;2023-05-23T00:40:52;16.10;99.90
10678;DHT22;5387;48.722;9.110;2023-05-23T00:43:19;16.00;99.90
10678;DHT22;5387;48.722;9.110;2023-05-23T00:45:47;16.00;99.90
10678;DHT22;5387;48.722;9.110;2023-05-23T00:48:16;16.00;99.90
10678;DHT22;5387;48.722;9.110;2023-05-23T00:50:42;16.00;99.90
10678;DHT22;5387;48.722;9.110;2023-05-23T00:53:11;16.00;99.90
10678;DHT22;5387;48.722;9.110;2023-05-23T00:55:38;15.90;99.90
10678;DHT22;5387;48.722;9.110;2023-05-23T00:58:05;15.90;99.90
10678;DHT22;5387;48.722;9.110;2023-05-23T01:00:32;16.00;99.90
10678;DHT22;5387;48.722;9.110;2023-05-23T01:03:00;15.80;99.90
10678;DHT22;5387;48.722;9.110;2023-05-23T01:05:28;15.80;99.90
10678;DHT22;5387;48.722;9.110;2023-05-23T01:07:55;15.80;99.90
10678;DHT22;5387;48.722;9.110;2023-05-23T01:10:23;15.80;99.90
10678;DHT22;5387;48.722;9.110;2023-05-23T01:13:00;15.70;99.90
10678;DHT22;5387;48.722;9.110;2023-05-23T01:15:35;15.90;99.90
10678;DHT22;5387;48.722;9.110;2023-05-23T01:18:09;15.80;99.90
10678;DHT22;5387;48.722;9.110;2023-05-23T01:20:40;15.80;99.90
10678;DHT22;5387;48.722;9.110;2023-05-23T01:23:18;15.70;99.90
10678;DHT22;5387;48.722;9.110;2023-05-23T01:26:21;15.70;99.90
10678;DHT22;5387;48.722;9.110;2023-05-23T01:28:58;15.60;99.90
10678;DHT22;5387;48.722;9.110;2023-05-23T01:31:31;15.50;99.90
10678;DHT22;5387;48.722;9.110;2023-05-23T01:34:01;15.60;99.90
10678;DHT22;5387;48.722;9.110;2023-05-23T01:36:28;15.60;99.90
10678;DHT22;5387;48.722;9.110;2023-05-23T01:38:56;15.50;99.90
10678;DHT22;5387;48.722;9.110;2023-05-23T01:41:23;15.50;99.90
10678;DHT22;5387;48.722;9.110;2023-05-23T01:43:50;15.50;99.90
10678;DHT22;5387;48.722;9.110;2023-05-23T01:46:19;15.30;99.90
10678;DHT22;5387;48.722;9.110;2023-05-23T01:48:47;15.40;99.90
10678;DHT22;5387;48.722;9.110;2023-05-23T01:51:14;15.50;99.90
10678;DHT22;5387;48.722;9.110;2023-05-23T01:53:42;15.40;99.90
10678;DHT22;5387;48.722;9.110;2023-05-23T01:56:09;15.30;99.90
10678;DHT22;5387;48.722;9.110;2023-05-23T01:58:36;15.40;99.90
10678;DHT22;5387;48.722;9.110;2023-05-23T02:01:03;15.30;99.90
10678;DHT22;5387;48.722;9.110;2023-05-23T02:03:31;15.30;99.90
10678;DHT22;5387;48.722;9.110;2023-05-23T02:05:58;15.30;99.90
10678;DHT22;5387;48.722;9.110;2023-05-23T02:08:25;15.20;99.90
10678;DHT22;5387;48.722;9.110;2023-05-23T02:10:52;15.20;99.90
10678;DHT22;5387;48.722;9.110;2023-05-23T02:13:19;15.20;99.90
10678;DHT22;5387;48.722;9.110;2023-05-23T02:15:45;15.40;99.90
10678;DHT22;5387;48.722;9.110;2023-05-23T02:18:12;15.20;99.90
10678;DHT22;5387;48.722;9.110;2023-05-23T02:20:40;15.20;99.90
10678;DHT22;5387;48.722;9.110;2023-05-23T02:23:07;15.20;99.90
10678;DHT22;5387;48.722;9.110;2023-05-23T02:25:34;15.10;99.90
10678;DHT22;5387;48.722;9.110;2023-05-23T02:28:01;15.20;99.90
10678;DHT22;5387;48.722;9.110;2023-05-23T02:30:27;15.20;99.90
10678;DHT22;5387;48.722;9.110;2023-05-23T02:32:55;15.30;99.90
10678;DHT22;5387;48.722;9.110;2023-05-23T02:35:22;15.10;99.90
10678;DHT22;5387;48.722;9.110;2023-05-23T02:37:50;15.20;99.90
10678;DHT22;5387;48.722;9.110;2023-05-23T02:40:17;15.10;99.90
10678;DHT22;5387;48.722;9.110;2023-05-23T02:42:44;15.10;99.90
10678;DHT22;5387;48.722;9.110;2023-05-23T02:45:11;15.20;99.90
10678;DHT22;5387;48.722;9.110;2023-05-23T02:47:37;15.20;99.90
10678;DHT22;5387;48.722;9.110;2023-05-23T02:50:05;15.40;99.90
10678;DHT22;5387;48.722;9.110;2023-05-23T02:52:32;15.20;99.90
10678;DHT22;5387;48.722;9.110;2023-05-23T02:55:00;15.20;99.90
10678;DHT22;5387;48.722;9.110;2023-05-23T02:57:27;15.20;99.90
10678;DHT22;5387;48.722;9.110;2023-05-23T02:59:54;15.40;99.90
10678;DHT22;5387;48.722;9.110;2023-05-23T03:02:21;15.20;99.90
10678;DHT22;5387;48.722;9.110;2023-05-23T03:04:48;15.30;99.90
10678;DHT22;5387;48.722;9.110;2023-05-23T03:07:15;15.40;99.90
10678;DHT22;5387;48.722;9.110;2023-05-23T03:09:42;15.40;99.90
10678;DHT22;5387;48.722;9.110;2023-05-23T03:12:10;15.50;99.90
10678;DHT22;5387;48.722;9.110;2023-05-23T03:14:37;15.60;99.90
10678;DHT22;5387;48.722;9.110;2023-05-23T03:17:03;15.60;99.90
10678;DHT22;5387;48.722;9.110;2023-05-23T03:19:30;15.60;99.90
10678;DHT22;5387;48.722;9.110;2023-05-23T03:21:57;15.50;99.90
10678;DHT22;5387;48.722;9.110;2023-05-23T03:24:24;15.70;99.90
10678;DHT22;5387;48.722;9.110;2023-05-23T03:26:51;15.60;99.90
10678;DHT22;5387;48.722;9.110;2023-05-23T03:29:19;15.60;99.90
10678;DHT22;5387;48.722;9.110;2023-05-23T03:31:45;15.60;99.90
10678;DHT22;5387;48.722;9.110;2023-05-23T03:34:12;15.60;99.90
10678;DHT22;5387;48.722;9.110;2023-05-23T03:36:39;15.60;99.90
10678;DHT22;5387;48.722;9.110;2023-05-23T03:39:06;15.60;99.90
10678;DHT22;5387;48.722;9.110;2023-05-23T03:41:33;15.50;99.90
10678;DHT22;5387;48.722;9.110;2023-05-23T03:44:00;15.60;99.90
10678;DHT22;5387;48.722;9.110;2023-05-23T03:46:28;15.60;99.90
10678;DHT22;5387;48.722;9.110;2023-05-23T03:48:55;15.60;99.90
10678;DHT22;5387;48.722;9.110;2023-05-23T03:51:22;15.70;99.90
10678;DHT22;5387;48.722;9.110;2023-05-23T03:53:48;15.70;99.90
10678;DHT22;5387;48.722;9.110;2023-05-23T03:56:15;15.70;99.90
10678;DHT22;5387;48.722;9.110;2023-05-23T03:58:42;15.70;99.90
10678;DHT22;5387;48.722;9.110;2023-05-23T04:01:09;15.70;99.90
10678;DHT22;5387;48.722;9.110;2023-05-23T04:03:37;15.70;99.90
10678;DHT22;5387;48.722;9.110;2023-05-23T04:06:04;15.70;99.90
10678;DHT22;5387;48.722;9.110;2023-05-23T04:08:31;15.70;99.90
10678;DHT22;5387;48.722;9.110;2023-05-23T04:10:59;15.70;99.90
10678;DHT22;5387;48.722;9.110;2023-05-23T04:13:26;15.70;99.90
10678;DHT22;5387;48.722;9.110;2023-05-23T04:15:55;15.80;99.90
10678;DHT22;5387;48.722;9.110;2023-05-23T04:18:26;15.80;99.90
10678;DHT22;5387;48.722;9.110;2023-05-23T04:20:54;15.80;99.90
10678;DHT22;5387;48.722;9.110;2023-05-23T04:23:21;15.80;99.90
10678;DHT22;5387;48.722;9.110;2023-05-23T04:25:48;15.90;99.90
10678;DHT22;5387;48.722;9.110;2023-05-23T04:28:16;15.70;99.90
10678;DHT22;5387;48.722;9.110;2023-05-23T04:30:43;15.90;99.90
10678;DHT22;5387;48.722;9.110;2023-05-23T04:33:09;15.90;99.90
10678;DHT22;5387;48.722;9.110;2023-05-23T04:35:37;15.80;99.90
10678;DHT22;5387;48.722;9.110;2023-05-23T04:38:06;15.70;99.90
10678;DHT22;5387;48.722;9.110;2023-05-23T04:40:33;16.10;99.90
10678;DHT22;5387;48.722;9.110;2023-05-23T04:43:00;16.00;99.90
10678;DHT22;5387;48.722;9.110;2023-05-23T04:45:26;15.90;99.90
10678;DHT22;5387;48.722;9.110;2023-05-23T04:47:54;16.00;99.90
10678;DHT22;5387;48.722;9.110;2023-05-23T04:50:20;16.00;99.90
10678;DHT22;5387;48.722;9.110;2023-05-23T04:52:47;15.80;99.90
10678;DHT22;5387;48.722;9.110;2023-05-23T04:55:16;15.60;99.90
10678;DHT22;5387;48.722;9.110;2023-05-23T04:57:44;15.80;99.90
10678;DHT22;5387;48.722;9.110;2023-05-23T05:00:12;15.80;99.90
10678;DHT22;5387;48.722;9.110;2023-05-23T05:02:40;15.70;99.90
10678;DHT22;5387;48.722;9.110;2023-05-23T05:05:08;15.70;99.90
10678;DHT22;5387;48.722;9.110;2023-05-23T05:07:35;15.80;99.90
10678;DHT22;5387;48.722;9.110;2023-05-23T05:10:02;15.70;99.90
10678;DHT22;5387;48.722;9.110;2023-05-23T05:12:31;15.70;99.90
10678;DHT22;5387;48.722;9.110;2023-05-23T05:14:58;15.80;99.90
10678;DHT22;5387;48.722;9.110;2023-05-23T05:17:25;15.90;99.90
10678;DHT22;5387;48.722;9.110;2023-05-23T05:19:52;15.90;99.90
10678;DHT22;5387;48.722;9.110;2023-05-23T05:22:19;15.90;99.90
10678;DHT22;5387;48.722;9.110;2023-05-23T05:24:46;15.70;99.90
10678;DHT22;5387;48.722;9.110;2023-05-23T05:27:12;15.70;99.90
10678;DHT22;5387;48.722;9.110;2023-05-23T05:29:41;15.90;99.90
10678;DHT22;5387;48.722;9.110;2023-05-23T05:32:07;15.70;99.90
10678;DHT22;5387;48.722;9.110;2023-05-23T05:34:34;15.70;99.90
10678;DHT22;5387;48.722;9.110;2023-05-23T05:37:02;15.80;99.90
10678;DHT22;5387;48.722;9.110;2023-05-23T05:39:29;15.70;99.90
10678;DHT22;5387;48.722;9.110;2023-05-23T05:41:56;15.80;99.90
10678;DHT22;5387;48.722;9.110;2023-05-23T05:44:23;15.80;99.90
10678;DHT22;5387;48.722;9.110;2023-05-23T05:46:52;15.50;99.90
10678;DHT22;5387;48.722;9.110;2023-05-23T05:49:19;15.80;99.90
10678;DHT22;5387;48.722;9.110;2023-05-23T05:51:46;15.60;99.90
10678;DHT22;5387;48.722;9.110;2023-05-23T05:54:13;15.80;99.90
10678;DHT22;5387;48.722;9.110;2023-05-23T05:56:40;16.00;99.90
10678;DHT22;5387;48.722;9.110;2023-05-23T05:59:07;16.00;99.90
10678;DHT22;5387;48.722;9.110;2023-05-23T06:01:34;16.10;99.90
10678;DHT22;5387;48.722;9.110;2023-05-23T06:04:03;15.90;99.90
10678;DHT22;5387;48.722;9.110;2023-05-23T06:06:30;15.90;99.90
10678;DHT22;5387;48.722;9.110;2023-05-23T06:08:58;16.00;99.90
10678;DHT22;5387;48.722;9.110;2023-05-23T06:11:25;16.10;99.90
10678;DHT22;5387;48.722;9.110;2023-05-23T06:13:52;16.10;99.90
10678;DHT22;5387;48.722;9.110;2023-05-23T06:16:19;16.30;99.90
10678;DHT22;5387;48.722;9.110;2023-05-23T06:18:46;16.00;99.90
10678;DHT22;5387;48.722;9.110;2023-05-23T06:21:14;16.00;99.90
10678;DHT22;5387;48.722;9.110;2023-05-23T06:23:41;16.10;99.90
10678;DHT22;5387;48.722;9.110;2023-05-23T06:26:08;16.20;99.90
10678;DHT22;5387;48.722;9.110;2023-05-23T06:28:36;16.30;99.90
10678;DHT22;5387;48.722;9.110;2023-05-23T06:31:04;16.40;99.90
10678;DHT22;5387;48.722;9.110;2023-05-23T06:33:31;16.40;99.90
10678;DHT22;5387;48.722;9.110;2023-05-23T06:35:58;16.40;99.90
10678;DHT22;5387;48.722;9.110;2023-05-23T06:38:28;16.20;99.90
10678;DHT22;5387;48.722;9.110;2023-05-23T06:40:58;16.30;99.90
10678;DHT22;5387;48.722;9.110;2023-05-23T06:43:24;16.30;99.90
10678;DHT22;5387;48.722;9.110;2023-05-23T06:45:52;16.30;99.90
10678;DHT22;5387;48.722;9.110;2023-05-23T06:48:19;16.30;99.90
10678;DHT22;5387;48.722;9.110;2023-05-23T06:50:46;16.20;99.90
10678;DHT22;5387;48.722;9.110;2023-05-23T06:53:12;16.10;99.90
10678;DHT22;5387;48.722;9.110;2023-05-23T06:55:42;16.00;99.90
10678;DHT22;5387;48.722;9.110;2023-05-23T06:58:09;16.20;99.90
10678;DHT22;5387;48.722;9.110;2023-05-23T07:00:38;16.30;99.90
10678;DHT22;5387;48.722;9.110;2023-05-23T07:03:06;16.30;99.90
10678;DHT22;5387;48.722;9.110;2023-05-23T07:05:33;16.10;99.90
10678;DHT22;5387;48.722;9.110;2023-05-23T07:08:01;15.90;99.90
10678;DHT22;5387;48.722;9.110;2023-05-23T07:10:28;15.90;99.90
10678;DHT22;5387;48.722;9.110;2023-05-23T07:12:56;15.90;99.90
10678;DHT22;5387;48.722;9.110;2023-05-23T07:15:23;15.60;99.90
10678;DHT22;5387;48.722;9.110;2023-05-23T07:17:49;15.70;99.90
10678;DHT22;5387;48.722;9.110;2023-05-23T07:20:16;15.60;99.90
10678;DHT22;5387;48.722;9.110;2023-05-23T07:22:43;15.70;99.90
10678;DHT22;5387;48.722;9.110;2023-05-23T07:25:10;15.50;99.90
10678;DHT22;5387;48.722;9.110;2023-05-23T07:27:37;15.60;99.90
10678;DHT22;5387;48.722;9.110;2023-05-23T07:30:06;15.60;99.90
10678;DHT22;5387;48.722;9.110;2023-05-23T07:32:34;15.50;99.90
10678;DHT22;5387;48.722;9.110;2023-05-23T07:35:01;15.60;99.90
10678;DHT22;5387;48.722;9.110;2023-05-23T07:37:27;15.30;99.90
10678;DHT22;5387;48.722;9.110;2023-05-23T07:39:54;15.20;99.90
10678;DHT22;5387;48.722;9.110;2023-05-23T07:42:21;15.20;99.90
10678;DHT22;5387;48.722;9.110;2023-05-23T07:44:48;15.20;99.90
10678;DHT22;5387;48.722;9.110;2023-05-23T07:47:16;15.20;99.90
10678;DHT22;5387;48.722;9.110;2023-05-23T07:49:43;15.10;99.90
10678;DHT22;5387;48.722;9.110;2023-05-23T07:52:10;15.30;99.90
10678;DHT22;5387;48.722;9.110;2023-05-23T07:54:37;15.00;99.90
10678;DHT22;5387;48.722;9.110;2023-05-23T07:57:04;15.00;99.90
10678;DHT22;5387;48.722;9.110;2023-05-23T07:59:31;14.90;99.90
10678;DHT22;5387;48.722;9.110;2023-05-23T08:01:58;15.10;99.90
10678;DHT22;5387;48.722;9.110;2023-05-23T08:04:27;15.20;99.90
10678;DHT22;5387;48.722;9.110;2023-05-23T08:06:54;15.10;99.90
10678;DHT22;5387;48.722;9.110;2023-05-23T08:09:22;15.20;99.90
10678;DHT22;5387;48.722;9.110;2023-05-23T08:11:48;14.90;99.90
10678;DHT22;5387;48.722;9.110;2023-05-23T08:14:15;14.90;99.90
10678;DHT22;5387;48.722;9.110;2023-05-23T08:16:42;15.20;99.90
10678;DHT22;5387;48.722;9.110;2023-05-23T08:19:09;15.20;99.90
10678;DHT22;5387;48.722;9.110;2023-05-23T08:21:37;15.30;99.90
10678;DHT22;5387;48.722;9.110;2023-05-23T08:24:04;15.20;99.90
10678;DHT22;5387;48.722;9.110;2023-05-23T08:26:31;15.20;99.90
10678;DHT22;5387;48.722;9.110;2023-05-23T08:28:59;15.30;99.90
10678;DHT22;5387;48.722;9.110;2023-05-23T08:31:28;15.20;99.90
10678;DHT22;5387;48.722;9.110;2023-05-23T08:33:55;15.10;99.90
10678;DHT22;5387;48.722;9.110;2023-05-23T08:36:22;15.10;99.90
10678;DHT22;5387;48.722;9.110;2023-05-23T08:38:50;15.10;99.90
10678;DHT22;5387;48.722;9.110;2023-05-23T08:41:19;15.00;99.90
10678;DHT22;5387;48.722;9.110;2023-05-23T08:43:47;14.90;99.90
10678;DHT22;5387;48.722;9.110;2023-05-23T08:46:14;14.90;99.90
10678;DHT22;5387;48.722;9.110;2023-05-23T08:48:42;15.00;99.90
10678;DHT22;5387;48.722;9.110;2023-05-23T08:51:09;14.80;99.90
10678;DHT22;5387;48.722;9.110;2023-05-23T08:53:41;14.80;99.90
10678;DHT22;5387;48.722;9.110;2023-05-23T08:56:10;15.10;99.90
10678;DHT22;5387;48.722;9.110;2023-05-23T08:58:38;15.20;99.90
10678;DHT22;5387;48.722;9.110;2023-05-23T09:01:06;15.10;99.90
10678;DHT22;5387;48.722;9.110;2023-05-23T09:03:34;15.20;99.90
10678;DHT22;5387;48.722;9.110;2023-05-23T09:06:02;15.00;99.90
10678;DHT22;5387;48.722;9.110;2023-05-23T09:08:29;15.20;99.90
10678;DHT22;5387;48.722;9.110;2023-05-23T09:10:56;15.20;99.90
10678;DHT22;5387;48.722;9.110;2023-05-23T09:13:24;15.00;99.90
10678;DHT22;5387;48.722;9.110;2023-05-23T09:15:57;15.30;99.90
10678;DHT22;5387;48.722;9.110;2023-05-23T09:18:26;15.10;99.90
10678;DHT22;5387;48.722;9.110;2023-05-23T09:20:53;15.20;99.90
10678;DHT22;5387;48.722;9.110;2023-05-23T09:23:20;15.20;99.90
10678;DHT22;5387;48.722;9.110;2023-05-23T09:25:48;15.10;99.90
10678;DHT22;5387;48.722;9.110;2023-05-23T09:28:14;15.40;99.90
10678;DHT22;5387;48.722;9.110;2023-05-23T09:30:43;15.60;99.90
10678;DHT22;5387;48.722;9.110;2023-05-23T09:33:09;15.60;99.90
10678;DHT22;5387;48.722;9.110;2023-05-23T09:35:43;15.60;99.90
10678;DHT22;5387;48.722;9.110;2023-05-23T09:38:10;16.00;99.90
10678;DHT22;5387;48.722;9.110;2023-05-23T09:40:37;16.00;99.90
10678;DHT22;5387;48.722;9.110;2023-05-23T09:43:10;16.40;99.90
10678;DHT22;5387;48.722;9.110;2023-05-23T09:45:37;16.40;99.90
10678;DHT22;5387;48.722;9.110;2023-05-23T09:48:11;16.40;99.90
10678;DHT22;5387;48.722;9.110;2023-05-23T09:50:38;16.60;99.90
10678;DHT22;5387;48.722;9.110;2023-05-23T09:53:05;16.90;99.90
10678;DHT22;5387;48.722;9.110;2023-05-23T09:55:32;17.30;99.90
10678;DHT22;5387;48.722;9.110;2023-05-23T09:57:59;17.00;99.90
10678;DHT22;5387;48.722;9.110;2023-05-23T10:00:27;16.60;99.90
10678;DHT22;5387;48.722;9.110;2023-05-23T10:02:59;16.70;99.90
10678;DHT22;5387;48.722;9.110;2023-05-23T10:05:33;16.50;99.90
10678;DHT22;5387;48.722;9.110;2023-05-23T10:08:04;16.40;99.90
10678;DHT22;5387;48.722;9.110;2023-05-23T10:10:34;16.90;99.90
10678;DHT22;5387;48.722;9.110;2023-05-23T10:13:04;17.20;99.90
10678;DHT22;5387;48.722;9.110;2023-05-23T10:15:36;17.30;99.90
10678;DHT22;5387;48.722;9.110;2023-05-23T10:18:08;17.40;99.90
10678;DHT22;5387;48.722;9.110;2023-05-23T10:20:39;17.20;99.90
10678;DHT22;5387;48.722;9.110;2023-05-23T10:23:09;17.10;99.90
10678;DHT22;5387;48.722;9.110;2023-05-23T10:25:37;17.10;99.90
10678;DHT22;5387;48.722;9.110;2023-05-23T10:28:06;16.80;99.90
10678;DHT22;5387;48.722;9.110;2023-05-23T10:30:33;16.60;99.90
10678;DHT22;5387;48.722;9.110;2023-05-23T10:33:01;16.90;99.90
10678;DHT22;5387;48.722;9.110;2023-05-23T10:35:44;17.20;99.90
10678;DHT22;5387;48.722;9.110;2023-05-23T10:38:25;17.50;99.90
10678;DHT22;5387;48.722;9.110;2023-05-23T10:40:57;17.70;99.90
10678;DHT22;5387;48.722;9.110;2023-05-23T10:43:30;17.40;99.90
10678;DHT22;5387;48.722;9.110;2023-05-23T10:46:00;17.30;99.90
10678;DHT22;5387;48.722;9.110;2023-05-23T10:48:32;17.80;99.90
10678;DHT22;5387;48.722;9.110;2023-05-23T10:51:05;18.00;99.90
10678;DHT22;5387;48.722;9.110;2023-05-23T10:53:34;18.00;99.90
10678;DHT22;5387;48.722;9.110;2023-05-23T10:56:03;18.00;99.90
10678;DHT22;5387;48.722;9.110;2023-05-23T10:58:31;18.20;99.90
10678;DHT22;5387;48.722;9.110;2023-05-23T11:01:01;18.30;99.90
10678;DHT22;5387;48.722;9.110;2023-05-23T11:03:32;18.00;99.90
10678;DHT22;5387;48.722;9.110;2023-05-23T11:06:00;18.10;99.90
10678;DHT22;5387;48.722;9.110;2023-05-23T11:08:35;18.10;99.90
10678;DHT22;5387;48.722;9.110;2023-05-23T11:11:03;18.40;99.90
10678;DHT22;5387;48.722;9.110;2023-05-23T11:13:56;18.00;99.90
10678;DHT22;5387;48.722;9.110;2023-05-23T11:16:29;17.50;99.90
10678;DHT22;5387;48.722;9.110;2023-05-23T11:19:22;17.70;99.90
10678;DHT22;5387;48.722;9.110;2023-05-23T11:21:58;17.70;99.90
10678;DHT22;5387;48.722;9.110;2023-05-23T11:24:48;17.60;99.90
10678;DHT22;5387;48.722;9.110;2023-05-23T11:27:16;17.70;99.90
10678;DHT22;5387;48.722;9.110;2023-05-23T11:29:46;18.00;99.90
10678;DHT22;5387;48.722;9.110;2023-05-23T11:32:22;17.80;99.90
10678;DHT22;5387;48.722;9.110;2023-05-23T11:34:50;17.80;99.90
10678;DHT22;5387;48.722;9.110;2023-05-23T11:37:17;17.50;99.90
10678;DHT22;5387;48.722;9.110;2023-05-23T11:39:45;17.60;99.90
10678;DHT22;5387;48.722;9.110;2023-05-23T11:42:13;18.10;99.90
10678;DHT22;5387;48.722;9.110;2023-05-23T11:44:40;18.60;99.90
10678;DHT22;5387;48.722;9.110;2023-05-23T11:47:06;18.60;99.90
10678;DHT22;5387;48.722;9.110;2023-05-23T11:49:35;18.50;99.90
10678;DHT22;5387;48.722;9.110;2023-05-23T11:52:04;18.40;99.90
10678;DHT22;5387;48.722;9.110;2023-05-23T11:54:32;18.30;99.90
10678;DHT22;5387;48.722;9.110;2023-05-23T11:56:59;17.70;99.90
10678;DHT22;5387;48.722;9.110;2023-05-23T11:59:27;17.50;99.90
10678;DHT22;5387;48.722;9.110;2023-05-23T12:01:54;18.10;99.90
10678;DHT22;5387;48.722;9.110;2023-05-23T12:04:21;18.50;99.90
10678;DHT22;5387;48.722;9.110;2023-05-23T12:06:50;18.10;99.90
10678;DHT22;5387;48.722;9.110;2023-05-23T12:09:16;18.20;99.90
10678;DHT22;5387;48.722;9.110;2023-05-23T12:11:44;18.60;99.90
10678;DHT22;5387;48.722;9.110;2023-05-23T12:14:14;18.40;99.90
10678;DHT22;5387;48.722;9.110;2023-05-23T12:16:44;18.10;99.90
10678;DHT22;5387;48.722;9.110;2023-05-23T12:19:11;17.70;99.90
10678;DHT22;5387;48.722;9.110;2023-05-23T12:21:43;17.60;99.90
10678;DHT22;5387;48.722;9.110;2023-05-23T12:24:17;17.70;99.90
10678;DHT22;5387;48.722;9.110;2023-05-23T12:26:48;17.60;99.90
10678;DHT22;5387;48.722;9.110;2023-05-23T12:29:17;17.90;99.90
10678;DHT22;5387;48.722;9.110;2023-05-23T12:31:48;18.90;99.90
10678;DHT22;5387;48.722;9.110;2023-05-23T12:34:16;19.70;99.90
10678;DHT22;5387;48.722;9.110;2023-05-23T12:36:43;20.60;99.90
10678;DHT22;5387;48.722;9.110;2023-05-23T12:39:10;21.30;99.90
10678;DHT22;5387;48.722;9.110;2023-05-23T12:41:40;21.30;99.90
10678;DHT22;5387;48.722;9.110;2023-05-23T12:44:08;21.70;99.90
10678;DHT22;5387;48.722;9.110;2023-05-23T12:46:36;22.40;99.90
10678;DHT22;5387;48.722;9.110;2023-05-23T12:49:04;21.50;99.90
10678;DHT22;5387;48.722;9.110;2023-05-23T12:51:31;20.60;99.90
10678;DHT22;5387;48.722;9.110;2023-05-23T12:53:58;20.00;99.90
10678;DHT22;5387;48.722;9.110;2023-05-23T12:56:25;19.60;99.90
10678;DHT22;5387;48.722;9.110;2023-05-23T12:58:52;19.60;99.90
10678;DHT22;5387;48.722;9.110;2023-05-23T13:01:19;19.50;99.90
10678;DHT22;5387;48.722;9.110;2023-05-23T13:03:46;19.70;99.90
10678;DHT22;5387;48.722;9.110;2023-05-23T13:06:14;19.60;99.90
10678;DHT22;5387;48.722;9.110;2023-05-23T13:08:41;19.90;99.90
10678;DHT22;5387;48.722;9.110;2023-05-23T13:11:08;19.30;99.90
10678;DHT22;5387;48.722;9.110;2023-05-23T13:13:35;19.30;99.90
10678;DHT22;5387;48.722;9.110;2023-05-23T13:16:02;18.90;99.90
10678;DHT22;5387;48.722;9.110;2023-05-23T13:18:29;18.70;99.90
10678;DHT22;5387;48.722;9.110;2023-05-23T13:20:56;19.00;99.90
10678;DHT22;5387;48.722;9.110;2023-05-23T13:23:24;19.30;99.90
10678;DHT22;5387;48.722;9.110;2023-05-23T13:25:51;19.20;99.90
10678;DHT22;5387;48.722;9.110;2023-05-23T13:28:18;19.30;99.90
10678;DHT22;5387;48.722;9.110;2023-05-23T13:30:45;19.20;99.90
10678;DHT22;5387;48.722;9.110;2023-05-23T13:33:12;19.90;99.90
10678;DHT22;5387;48.722;9.110;2023-05-23T13:35:39;20.10;99.90
10678;DHT22;5387;48.722;9.110;2023-05-23T13:38:06;20.40;99.90
10678;DHT22;5387;48.722;9.110;2023-05-23T13:40:34;19.50;99.90
10678;DHT22;5387;48.722;9.110;2023-05-23T13:43:01;18.80;99.90
10678;DHT22;5387;48.722;9.110;2023-05-23T13:45:27;18.60;99.90
10678;DHT22;5387;48.722;9.110;2023-05-23T13:47:55;18.30;99.90
10678;DHT22;5387;48.722;9.110;2023-05-23T13:50:22;18.00;99.90
10678;DHT22;5387;48.722;9.110;2023-05-23T13:52:49;17.80;99.90
10678;DHT22;5387;48.722;9.110;2023-05-23T13:55:16;17.80;99.90
10678;DHT22;5387;48.722;9.110;2023-05-23T13:57:45;17.90;99.90
10678;DHT22;5387;48.722;9.110;2023-05-23T14:00:13;18.10;99.90
10678;DHT22;5387;48.722;9.110;2023-05-23T14:02:40;18.00;99.90
10678;DHT22;5387;48.722;9.110;2023-05-23T14:05:08;18.30;99.90
10678;DHT22;5387;48.722;9.110;2023-05-23T14:07:35;18.30;99.90
10678;DHT22;5387;48.722;9.110;2023-05-23T14:10:03;18.10;99.90
10678;DHT22;5387;48.722;9.110;2023-05-23T14:12:31;18.30;99.90
10678;DHT22;5387;48.722;9.110;2023-05-23T14:14:59;18.20;99.90
10678;DHT22;5387;48.722;9.110;2023-05-23T14:17:26;17.90;99.90
10678;DHT22;5387;48.722;9.110;2023-05-23T14:19:53;17.70;99.90
10678;DHT22;5387;48.722;9.110;2023-05-23T14:22:20;17.60;99.90
10678;DHT22;5387;48.722;9.110;2023-05-23T14:24:46;17.90;99.90
10678;DHT22;5387;48.722;9.110;2023-05-23T14:27:13;18.20;99.90
10678;DHT22;5387;48.722;9.110;2023-05-23T14:29:40;18.50;99.90
10678;DHT22;5387;48.722;9.110;2023-05-23T14:32:12;18.90;99.90
10678;DHT22;5387;48.722;9.110;2023-05-23T14:34:39;19.20;99.90
10678;DHT22;5387;48.722;9.110;2023-05-23T14:37:05;18.90;99.90
10678;DHT22;5387;48.722;9.110;2023-05-23T14:39:32;19.00;99.90
10678;DHT22;5387;48.722;9.110;2023-05-23T14:42:00;19.10;99.90
10678;DHT22;5387;48.722;9.110;2023-05-23T14:44:27;18.90;99.90
10678;DHT22;5387;48.722;9.110;2023-05-23T14:46:54;18.60;99.90
10678;DHT22;5387;48.722;9.110;2023-05-23T14:49:22;18.30;99.90
10678;DHT22;5387;48.722;9.110;2023-05-23T14:51:49;18.40;99.90
10678;DHT22;5387;48.722;9.110;2023-05-23T14:54:16;18.40;99.90
10678;DHT22;5387;48.722;9.110;2023-05-23T14:56:43;18.10;99.90
10678;DHT22;5387;48.722;9.110;2023-05-23T14:59:10;18.10;99.90
10678;DHT22;5387;48.722;9.110;2023-05-23T15:01:36;18.30;99.90
10678;DHT22;5387;48.722;9.110;2023-05-23T15:04:03;18.70;99.90
10678;DHT22;5387;48.722;9.110;2023-05-23T15:06:34;18.90;99.90
10678;DHT22;5387;48.722;9.110;2023-05-23T15:09:01;19.00;99.90
10678;DHT22;5387;48.722;9.110;2023-05-23T15:11:28;18.80;99.90
10678;DHT22;5387;48.722;9.110;2023-05-23T15:13:56;19.30;99.90
10678;DHT22;5387;48.722;9.110;2023-05-23T15:16:24;19.20;99.90
10678;DHT22;5387;48.722;9.110;2023-05-23T15:18:50;19.00;99.90
10678;DHT22;5387;48.722;9.110;2023-05-23T15:21:17;18.90;99.90
10678;DHT22;5387;48.722;9.110;2023-05-23T15:23:45;18.30;99.90
10678;DHT22;5387;48.722;9.110;2023-05-23T15:26:12;18.60;99.90
10678;DHT22;5387;48.722;9.110;2023-05-23T15:28:39;19.00;99.90
10678;DHT22;5387;48.722;9.110;2023-05-23T15:31:06;18.90;99.90
10678;DHT22;5387;48.722;9.110;2023-05-23T15:33:32;19.10;99.90
10678;DHT22;5387;48.722;9.110;2023-05-23T15:35:59;18.90;99.90
10678;DHT22;5387;48.722;9.110;2023-05-23T15:38:26;18.70;99.90
10678;DHT22;5387;48.722;9.110;2023-05-23T15:40:55;18.50;99.90
10678;DHT22;5387;48.722;9.110;2023-05-23T15:43:23;18.90;99.90
10678;DHT22;5387;48.722;9.110;2023-05-23T15:45:50;18.60;99.90
10678;DHT22;5387;48.722;9.110;2023-05-23T15:48:17;18.40;99.90
10678;DHT22;5387;48.722;9.110;2023-05-23T15:50:44;18.40;99.90